Time;durP1;ratioP1;P1;durP2;ratioP2;P2;SDS_P1;SDS_P2;PMS_P1;PMS_P2;Temp;Humidity;BMP_temperature;BMP_pressure;BME280_temperature;BME280_humidity;BME280_pressure;Samples;Min_cycle;Max_cycle;Signal;HPM_P1;HPM_P2
2024/02/15 00:12:32;;;;;;;1.25;0.80;;;;;;;11.59;43.36;95438.13;6238664;22;20020;-88
2024/02/15 00:38:05;;;;;;;1.75;0.60;;;;;;;11.19;44.76;95442.72;6214637;22;20066;-87
2024/02/15 00:40:31;;;;;;;2.05;0.80;;;;;;;11.40;44.09;95430.84;6140147;23;20036;-87
2024/02/15 00:42:59;;;;;;;1.35;0.60;;;;;;;11.57;44.26;95440.09;6139207;23;20032;-87
2024/02/15 00:45:25;;;;;;;1.15;0.70;;;;;;;11.32;44.81;95435.13;6140234;23;20012;-87
2024/02/15 00:52:51;;;;;;;0.65;0.60;;;;;;;11.24;44.30;95430.00;6232283;22;20102;-87
2024/02/15 00:55:16;;;;;;;0.95;0.70;;;;;;;11.38;44.09;95435.41;6218637;23;20019;-88
2024/02/15 01:02:42;;;;;;;0.90;0.52;;;;;;;11.56;43.63;95435.91;6184205;23;20025;-87
2024/02/15 01:05:09;;;;;;;0.60;0.55;;;;;;;11.44;44.04;95439.91;6158948;23;20023;-87
2024/02/15 01:07:35;;;;;;;1.15;0.68;;;;;;;11.45;43.82;95441.53;6183336;23;20008;-88
2024/02/15 01:10:00;;;;;;;0.65;0.50;;;;;;;11.20;43.87;95431.34;6109350;23;20009;-87
2024/02/15 01:12:26;;;;;;;1.00;0.60;;;;;;;11.07;43.99;95428.53;6110157;23;20069;-88
2024/02/15 01:20:06;;;;;;;1.13;0.70;;;;;;;11.42;43.43;95427.06;6202221;23;20012;-88
2024/02/15 01:40:18;;;;;;;2.08;0.60;;;;;;;10.90;45.50;95430.44;6223649;22;20028;-88
2024/02/15 01:42:49;;;;;;;1.05;0.73;;;;;;;10.65;45.70;95429.81;6218611;23;20004;-87
2024/02/15 01:45:17;;;;;;;1.90;0.60;;;;;;;10.76;45.55;95425.00;6218915;23;20004;-87
2024/02/15 01:47:43;;;;;;;0.85;0.50;;;;;;;10.67;45.72;95428.63;6193279;23;20004;-88
2024/02/15 01:57:47;;;;;;;0.90;0.57;;;;;;;10.72;46.19;95415.13;6242034;22;20019;-87
2024/02/15 02:00:15;;;;;;;0.70;0.60;;;;;;;10.94;45.43;95406.47;6169040;23;20007;-88
2024/02/15 02:02:42;;;;;;;0.65;0.52;;;;;;;11.06;45.44;95417.31;6217715;23;20008;-86
2024/02/15 02:07:37;;;;;;;0.80;0.60;;;;;;;11.18;44.97;95425.50;6242421;22;20024;-87
2024/02/15 02:15:06;;;;;;;0.75;0.70;;;;;;;11.12;45.58;95419.22;6193611;23;20021;-88
2024/02/15 02:17:33;;;;;;;1.35;0.50;;;;;;;11.04;45.73;95424.50;6188302;23;20020;-88
2024/02/15 02:19:59;;;;;;;0.70;0.50;;;;;;;11.17;45.65;95420.47;6187813;23;20004;-87
2024/02/15 02:22:24;;;;;;;1.77;0.70;;;;;;;10.98;46.29;95416.56;6187455;23;20036;-87
2024/02/15 02:25:10;;;;;;;1.23;0.63;;;;;;;10.54;47.13;95411.00;6186950;23;20099;-88
2024/02/15 02:27:36;;;;;;;0.70;0.60;;;;;;;10.63;47.01;95416.97;6187708;23;20005;-88
2024/02/15 02:30:14;;;;;;;0.90;0.60;;;;;;;10.46;47.36;95411.06;6212295;23;20012;-87
2024/02/15 02:32:41;;;;;;;0.85;0.63;;;;;;;10.65;46.91;95419.41;6187897;23;20000;-87
2024/02/15 02:35:12;;;;;;;0.60;0.60;;;;;;;10.35;47.11;95408.84;6162754;23;20066;-87
2024/02/15 02:37:42;;;;;;;0.75;0.60;;;;;;;10.10;48.00;95405.53;6188116;23;20072;-87
2024/02/15 02:46:32;;;;;;;0.70;0.55;;;;;;;10.38;47.71;95405.91;6203844;23;20365;-88
2024/02/15 02:48:57;;;;;;;1.40;0.60;;;;;;;9.94;48.67;95385.63;6133403;23;20021;-88
2024/02/15 02:51:22;;;;;;;1.00;0.70;;;;;;;10.44;47.45;95394.81;6132766;23;20084;-87
2024/02/15 02:53:48;;;;;;;2.50;0.70;;;;;;;10.24;47.80;95383.19;6157721;23;20005;-87
2024/02/15 02:56:13;;;;;;;0.75;0.60;;;;;;;10.50;47.32;95401.91;6108838;23;20015;-87
2024/02/15 03:09:01;;;;;;;1.15;0.70;;;;;;;10.46;47.79;95382.44;6159652;23;20024;-88
2024/02/15 03:11:27;;;;;;;2.58;0.60;;;;;;;10.62;47.57;95389.31;6133705;23;20099;-88
2024/02/15 03:13:53;;;;;;;0.60;0.50;;;;;;;10.69;47.45;95374.66;6135943;23;20016;-87
2024/02/15 03:18:43;;;;;;;0.73;0.60;;;;;;;10.47;47.60;95365.03;6209643;23;20020;-87
2024/02/15 03:21:10;;;;;;;0.80;0.50;;;;;;;10.51;47.64;95377.56;6187787;23;20234;-87
2024/02/15 03:23:40;;;;;;;0.90;0.60;;;;;;;10.60;47.56;95380.09;6163736;23;20016;-88
2024/02/15 03:26:08;;;;;;;0.98;0.63;;;;;;;10.50;47.41;95369.91;6162684;23;20011;-87
2024/02/15 03:28:36;;;;;;;0.82;0.50;;;;;;;10.52;47.48;95375.75;6183612;22;20019;-88
2024/02/15 03:31:02;;;;;;;0.60;0.60;;;;;;;10.65;47.29;95382.97;6218439;23;20020;-88
2024/02/15 03:33:32;;;;;;;0.73;0.52;;;;;;;10.51;47.45;95377.56;6186234;23;20036;-87
2024/02/15 03:36:00;;;;;;;0.70;0.47;;;;;;;10.30;47.99;95379.91;6163094;23;20023;-87
2024/02/15 03:38:29;;;;;;;0.70;0.60;;;;;;;10.39;47.42;95363.31;6187480;23;20087;-87
2024/02/15 03:40:55;;;;;;;1.02;0.73;;;;;;;10.33;47.99;95364.81;6187866;23;20001;-88
2024/02/15 03:43:23;;;;;;;1.23;0.50;;;;;;;10.21;48.07;95370.56;6187348;23;20013;-88
2024/02/15 03:48:24;;;;;;;0.50;0.40;;;;;;;10.17;48.20;95365.69;6213177;23;20104;-88
2024/02/15 03:50:49;;;;;;;0.90;0.70;;;;;;;10.45;47.53;95364.41;6162807;23;20008;-87
2024/02/15 03:53:17;;;;;;;2.20;0.63;;;;;;;10.26;47.84;95353.47;6187773;23;20011;-88
2024/02/15 03:55:43;;;;;;;0.50;0.40;;;;;;;10.57;47.23;95368.25;6164920;23;20009;-87
2024/02/15 04:05:45;;;;;;;0.88;0.50;;;;;;;10.44;47.20;95361.00;6212377;23;20024;-87
2024/02/15 04:08:10;;;;;;;0.60;0.60;;;;;;;10.14;47.93;95363.44;6164735;23;20040;-88
2024/02/15 04:10:39;;;;;;;0.70;0.60;;;;;;;10.23;47.56;95366.00;6140073;23;20008;-87
2024/02/15 04:13:04;;;;;;;0.93;0.50;;;;;;;10.39;47.41;95355.50;6140820;23;20088;-87
2024/02/15 04:17:56;;;;;;;0.77;0.50;;;;;;;10.54;46.38;95361.59;6203172;23;20020;-87
2024/02/15 04:20:22;;;;;;;0.80;0.70;;;;;;;10.60;46.43;95351.47;6213770;23;20015;-87
2024/02/15 04:22:50;;;;;;;0.80;0.40;;;;;;;10.48;46.32;95351.06;6188415;23;20079;-87
2024/02/15 04:25:20;;;;;;;1.40;0.50;;;;;;;10.50;47.14;95360.31;6189366;23;20067;-89
2024/02/15 04:37:57;;;;;;;1.08;0.50;;;;;;;10.54;46.00;95356.38;6184400;23;20025;-87
2024/02/15 04:40:25;;;;;;;0.57;0.50;;;;;;;10.45;45.93;95354.84;6134732;23;20067;-88
2024/02/15 04:55:46;;;;;;;0.73;0.60;;;;;;;9.89;47.56;95361.94;6213336;23;20029;-87
2024/02/15 05:03:07;;;;;;;0.90;0.60;;;;;;;9.43;49.34;95351.41;6212045;23;20017;-88
2024/02/15 05:10:36;;;;;;;2.50;0.50;;;;;;;9.31;49.23;95356.13;6190835;23;20029;-87
2024/02/15 05:13:05;;;;;;;0.60;0.50;;;;;;;9.33;48.77;95360.19;6163558;23;20043;-88
2024/02/15 05:20:34;;;;;;;0.75;0.45;;;;;;;9.78;47.94;95342.34;6172668;23;20017;-87
2024/02/15 05:23:03;;;;;;;0.70;0.50;;;;;;;9.73;47.84;95347.25;6164610;23;20143;-87
2024/02/15 05:25:29;;;;;;;0.98;0.52;;;;;;;10.00;47.22;95345.97;6139174;23;20052;-87
2024/02/15 05:27:55;;;;;;;1.17;0.50;;;;;;;10.02;47.33;95338.81;6188017;23;20009;-87
2024/02/15 05:45:42;;;;;;;0.50;0.50;;;;;;;10.10;46.23;95325.78;6196290;23;20024;-88
2024/02/15 05:48:08;;;;;;;0.70;0.60;;;;;;;10.07;46.20;95323.53;6218067;23;20012;-87
2024/02/15 05:50:34;;;;;;;0.70;0.40;;;;;;;10.27;45.89;95331.69;6193207;23;20015;-89
2024/02/15 05:53:01;;;;;;;1.52;0.50;;;;;;;10.00;46.13;95327.78;6218596;23;20000;-87
2024/02/15 05:57:53;;;;;;;1.73;0.50;;;;;;;10.03;46.38;95330.03;6244091;23;20024;-87
2024/02/15 06:02:44;;;;;;;1.25;0.82;;;;;;;10.06;45.91;95336.69;6208813;23;20169;-88
2024/02/15 06:05:12;;;;;;;2.10;0.60;;;;;;;9.90;46.17;95338.41;6163689;23;20013;-87
2024/02/15 06:07:39;;;;;;;1.08;0.80;;;;;;;10.04;45.95;95328.25;6188899;23;20001;-87
2024/02/15 06:10:07;;;;;;;0.90;0.82;;;;;;;10.07;45.94;95333.94;6163798;23;20016;-87
2024/02/15 06:12:33;;;;;;;1.98;0.90;;;;;;;10.05;46.08;95342.84;6213166;23;20007;-87
2024/02/15 06:15:01;;;;;;;1.17;0.90;;;;;;;10.01;46.21;95324.19;6188487;23;20009;-87
2024/02/15 06:17:26;;;;;;;1.48;0.90;;;;;;;9.54;46.72;95330.28;6164334;23;20013;-88
2024/02/15 06:19:55;;;;;;;1.13;0.98;;;;;;;9.67;46.98;95327.13;6187663;23;20060;-87
2024/02/15 06:41:36;;;;;;;1.50;0.80;;;;;;;10.32;44.13;95320.81;6222050;23;20015;-87
2024/02/15 06:51:37;;;;;;;0.95;0.75;;;;;;;10.71;42.95;95299.03;6183397;23;20017;-87
2024/02/15 06:54:06;;;;;;;1.05;0.60;;;;;;;10.84;42.99;95299.25;6183103;23;20032;-87
2024/02/15 06:56:37;;;;;;;1.17;0.65;;;;;;;10.94;43.00;95314.59;6183226;23;20020;-87
2024/02/15 06:59:07;;;;;;;0.70;0.70;;;;;;;10.81;43.32;95296.97;6169072;23;20026;-86
2024/02/15 07:09:11;;;;;;;5.15;2.30;;;;;;;10.43;43.59;95307.38;6203798;23;20024;-88
2024/02/15 07:11:36;;;;;;;6.00;3.67;;;;;;;9.99;45.66;95315.75;6163319;23;20015;-87
2024/02/15 07:14:04;;;;;;;6.03;3.03;;;;;;;10.51;44.95;95302.13;6162711;23;20008;-87
2024/02/15 07:16:31;;;;;;;5.95;2.90;;;;;;;10.65;44.65;95307.56;6212608;23;20008;-87
2024/02/15 07:19:00;;;;;;;7.60;3.63;;;;;;;10.96;43.92;95303.00;6162265;23;20019;-88
2024/02/15 07:23:56;;;;;;;6.20;3.38;;;;;;;11.25;43.50;95317.06;6172737;23;20009;-88
2024/02/15 07:26:25;;;;;;;4.28;2.55;;;;;;;11.62;43.48;95312.72;6138506;23;20008;-87
2024/02/15 07:28:54;;;;;;;2.53;1.80;;;;;;;11.67;42.41;95299.16;6188829;23;20007;-87
2024/02/15 07:33:51;;;;;;;4.55;2.70;;;;;;;12.37;41.42;95304.75;6198771;23;20074;-87
2024/02/15 07:36:23;;;;;;;3.13;2.00;;;;;;;12.91;40.29;95302.41;6188814;23;20009;-87
2024/02/15 07:38:50;;;;;;;2.55;1.63;;;;;;;14.17;38.53;95314.53;6164403;23;20012;-86
2024/02/15 07:41:19;;;;;;;2.38;1.30;;;;;;;15.33;35.89;95294.25;6140002;23;20087;-86
2024/02/15 07:43:46;;;;;;;2.47;1.38;;;;;;;16.95;33.52;95286.16;6188696;23;20019;-87
2024/02/15 08:33:52;;;;;;;1.83;1.00;;;;;;;22.13;25.71;95224.84;6181312;23;20047;-88
2024/02/15 08:38:47;;;;;;;2.80;1.15;;;;;;;21.33;26.13;95219.13;6228998;23;20036;-86
2024/02/15 08:41:13;;;;;;;2.83;1.20;;;;;;;21.05;27.04;95213.72;6187637;23;20068;-87
2024/02/15 08:54:00;;;;;;;4.50;1.10;;;;;;;22.38;25.74;95203.88;6207957;22;20024;-87
2024/02/15 08:56:26;;;;;;;4.18;1.20;;;;;;;22.46;25.98;95192.03;6161987;23;20015;-86
2024/02/15 08:58:54;;;;;;;7.47;1.33;;;;;;;22.00;26.87;95183.66;6137623;23;20009;-86
2024/02/15 09:12:31;;;;;;;1.52;1.15;;;;;;;22.86;25.12;95174.81;6215852;23;20016;-87
2024/02/15 09:14:56;;;;;;;4.57;1.25;;;;;;;22.60;27.37;95157.97;6157296;23;20125;-87
2024/02/15 09:17:22;;;;;;;5.28;1.50;;;;;;;22.90;26.93;95157.31;6157237;23;20029;-87
2024/02/15 09:19:51;;;;;;;7.05;1.45;;;;;;;23.44;25.54;95161.63;6156588;23;20008;-86
2024/02/15 09:27:27;;;;;;;1.58;1.00;;;;;;;22.93;26.60;95151.53;6206549;23;20024;-85
2024/02/15 09:29:52;;;;;;;5.07;1.00;;;;;;;22.73;27.38;95144.25;6162730;23;20027;-87
2024/02/15 09:32:17;;;;;;;4.97;1.40;;;;;;;22.47;26.04;95139.84;6137267;23;20012;-87
2024/02/15 09:34:43;;;;;;;7.72;1.45;;;;;;;21.70;26.49;95144.41;6161734;23;20016;-87
2024/02/15 09:37:13;;;;;;;4.10;1.50;;;;;;;21.21;27.89;95150.44;6182355;23;20100;-87
2024/02/15 09:42:04;;;;;;;2.33;1.30;;;;;;;21.33;27.53;95145.84;6208773;23;20032;-86
2024/02/15 09:44:30;;;;;;;3.92;1.17;;;;;;;20.57;29.19;95143.75;6186899;23;20234;-86
2024/02/15 09:47:06;;;;;;;2.70;0.93;;;;;;;20.67;29.10;95133.34;6162325;23;20013;-87
2024/02/15 09:49:35;;;;;;;4.68;1.20;;;;;;;20.64;29.89;95130.44;6186648;23;20043;-87
2024/02/15 09:54:26;;;;;;;2.23;1.00;;;;;;;20.37;29.37;95112.56;6211230;23;20028;-87
2024/02/15 09:56:53;;;;;;;4.15;1.00;;;;;;;20.58;29.41;95126.88;6161981;23;20016;-86
2024/02/15 09:59:21;;;;;;;5.18;1.10;;;;;;;20.02;30.76;95118.09;6186851;23;20039;-86
2024/02/15 10:01:48;;;;;;;4.82;1.13;;;;;;;20.11;30.32;95120.09;6186507;23;20004;-86
2024/02/15 10:04:15;;;;;;;3.92;1.23;;;;;;;19.71;30.28;95106.97;6137469;23;20039;-86
2024/02/15 10:06:42;;;;;;;4.75;1.08;;;;;;;19.69;30.40;95117.75;6162259;23;20066;-88
2024/02/15 10:09:43;;;;;;;1.00;0.80;;;;;;;19.36;30.81;95115.81;6186875;23;20008;-87
2024/02/15 10:12:09;;;;;;;1.10;0.70;;;;;;;19.51;30.22;95112.69;6067082;23;20006;-86
2024/02/15 10:14:35;;;;;;;3.97;1.02;;;;;;;19.37;31.17;95112.16;6167774;23;20001;-87
2024/02/15 10:17:11;;;;;;;3.22;1.10;;;;;;;19.26;32.90;95120.91;6186756;23;20009;-87
2024/02/15 10:19:43;;;;;;;2.55;0.80;;;;;;;19.20;31.40;95112.09;6186150;23;20013;-86
2024/02/15 10:24:39;;;;;;;1.35;0.85;;;;;;;19.09;31.38;95110.31;6196562;23;20044;-87
2024/02/15 10:27:10;;;;;;;2.33;0.80;;;;;;;18.93;32.27;95098.66;6162063;23;20004;-86
2024/02/15 10:29:36;;;;;;;1.80;0.80;;;;;;;18.79;32.11;95115.72;6186753;23;20088;-86
2024/02/15 10:34:47;;;;;;;1.48;1.10;;;;;;;18.59;32.69;95118.72;6198739;23;20043;-87
2024/02/15 10:37:16;;;;;;;1.33;1.00;;;;;;;18.81;32.83;95116.31;6187264;23;20004;-86
2024/02/15 10:39:42;;;;;;;2.38;1.35;;;;;;;18.47;32.81;95116.09;6189735;23;19992;-87
2024/02/15 10:42:11;;;;;;;1.65;1.00;;;;;;;18.63;33.68;95110.13;6171083;23;20035;-87
2024/02/15 10:44:38;;;;;;;1.48;1.10;;;;;;;18.75;32.93;95104.81;6211762;23;20001;-87
2024/02/15 10:49:52;;;;;;;1.55;0.95;;;;;;;18.88;32.92;95094.06;6212598;23;20020;-87
2024/02/15 10:52:20;;;;;;;1.80;1.00;;;;;;;19.02;32.79;95104.34;6138658;23;20020;-87
2024/02/15 10:54:57;;;;;;;1.50;1.02;;;;;;;19.05;33.75;95114.44;6162928;23;20013;-87
2024/02/15 10:57:25;;;;;;;2.15;1.10;;;;;;;19.16;33.26;95110.19;6187142;23;20012;-87
2024/02/15 11:00:01;;;;;;;6.50;1.10;;;;;;;18.79;34.88;95098.09;6186589;23;20001;-88
2024/02/15 11:02:31;;;;;;;3.22;1.13;;;;;;;19.10;33.80;95102.16;6186299;23;20082;-87
2024/02/15 11:05:20;;;;;;;2.50;1.30;;;;;;;19.19;33.40;95104.41;6185819;23;20032;-88
2024/02/15 11:07:46;;;;;;;3.22;1.23;;;;;;;19.54;31.85;95104.31;6186166;23;20020;-86
2024/02/15 11:10:16;;;;;;;2.97;1.33;;;;;;;19.30;33.10;95101.75;6186539;23;20009;-87
2024/02/15 11:12:42;;;;;;;2.97;1.00;;;;;;;19.33;34.53;95101.28;6162338;23;20019;-86
2024/02/15 11:15:12;;;;;;;2.00;1.10;;;;;;;19.37;32.17;95087.63;6186111;23;20008;-86
2024/02/15 11:17:39;;;;;;;2.13;1.40;;;;;;;19.25;33.84;95103.50;6186200;23;20080;-88
2024/02/15 11:20:08;;;;;;;2.30;1.10;;;;;;;19.50;32.34;95103.97;6188848;23;20017;-87
2024/02/15 11:22:36;;;;;;;3.25;1.35;;;;;;;19.32;32.79;95104.16;6186704;23;20016;-87
2024/02/15 11:25:11;;;;;;;2.60;1.50;;;;;;;19.23;32.46;95105.56;6186610;23;20032;-87
2024/02/15 11:27:41;;;;;;;3.28;1.20;;;;;;;19.05;32.59;95099.41;6186392;23;20036;-87
2024/02/15 11:32:49;;;;;;;2.17;1.40;;;;;;;18.64;32.37;95100.38;6185136;23;20084;-86
2024/02/15 11:35:25;;;;;;;2.22;1.30;;;;;;;18.61;34.27;95106.91;6186259;23;20074;-87
2024/02/15 11:38:03;;;;;;;4.18;1.55;;;;;;;18.83;32.45;95095.78;6186605;23;20109;-86
2024/02/15 11:40:51;;;;;;;1.70;1.30;;;;;;;18.20;33.26;95082.31;6211609;23;20008;-86
2024/02/15 11:43:55;;;;;;;3.63;1.73;;;;;;;18.34;33.39;95090.78;6186132;23;20012;-86
2024/02/15 11:46:24;;;;;;;2.33;1.77;;;;;;;18.15;33.91;95074.28;6186732;23;20015;-88
2024/02/15 11:48:50;;;;;;;3.08;1.30;;;;;;;18.43;32.88;95073.63;6161887;23;20035;-86
2024/02/15 11:51:31;;;;;;;1.48;1.23;;;;;;;18.17;33.90;95078.28;6161460;23;20107;-87
2024/02/15 11:56:44;;;;;;;3.72;1.45;;;;;;;18.94;34.04;95076.53;6193457;23;20021;-88
2024/02/15 11:59:18;;;;;;;1.95;1.35;;;;;;;18.49;34.92;95064.00;6156289;23;20100;-86
2024/02/15 12:20:40;;;;;;;1.77;1.45;;;;;;;18.74;34.92;95077.69;6230162;22;20101;-86
2024/02/15 12:23:06;;;;;;;4.20;1.50;;;;;;;18.69;35.07;95068.88;6192251;23;20012;-86
2024/02/15 12:25:33;;;;;;;1.60;1.50;;;;;;;18.63;32.84;95065.34;6199969;23;20040;-86
2024/02/15 12:28:00;;;;;;;6.07;1.38;;;;;;;19.14;32.77;95076.94;6163770;23;20013;-87
2024/02/15 12:30:32;;;;;;;2.08;1.52;;;;;;;18.51;33.73;95064.56;6214294;23;20004;-86
2024/02/15 12:33:10;;;;;;;2.35;1.70;;;;;;;18.48;34.63;95057.91;6213978;23;20024;-87
2024/02/15 12:35:36;;;;;;;3.38;1.65;;;;;;;18.69;34.14;95061.75;6213071;23;20009;-86
2024/02/15 12:38:05;;;;;;;4.63;1.50;;;;;;;18.68;34.14;95047.00;6163294;23;20076;-86
2024/02/15 12:40:36;;;;;;;2.80;1.55;;;;;;;18.59;34.15;95055.50;6212599;23;20007;-87
2024/02/15 12:43:05;;;;;;;2.95;1.70;;;;;;;18.67;35.02;95050.66;6212741;23;20036;-86
2024/02/15 12:45:32;;;;;;;2.90;1.70;;;;;;;18.02;34.46;95059.53;6188262;23;20012;-87
2024/02/15 12:47:57;;;;;;;2.88;1.65;;;;;;;17.54;37.33;95049.94;6188087;23;20009;-86
2024/02/15 12:50:27;;;;;;;2.30;1.73;;;;;;;17.35;36.42;95055.22;6212976;23;20005;-86
2024/02/15 12:52:55;;;;;;;2.78;1.85;;;;;;;17.56;35.76;95040.78;6212862;23;20012;-86
2024/02/15 12:55:24;;;;;;;3.13;1.80;;;;;;;17.28;35.29;95032.69;6188100;23;20005;-87
2024/02/15 12:57:55;;;;;;;3.28;1.70;;;;;;;16.92;36.06;95029.13;6188512;23;20015;-86
2024/02/15 13:02:51;;;;;;;3.20;1.95;;;;;;;16.54;37.56;95027.53;6185480;23;20027;-86
2024/02/15 13:05:21;;;;;;;2.65;1.80;;;;;;;16.89;36.66;95021.72;6163055;23;20012;-86
2024/02/15 13:07:47;;;;;;;;;;;;;;;16.90;36.63;95010.16;6188355;23;20041;-86
2024/02/15 13:10:14;;;;;;;3.47;2.10;;;;;;;17.01;37.97;94991.00;6187689;23;19911;-87
2024/02/15 13:12:42;;;;;;;4.30;1.92;;;;;;;17.09;35.93;95003.84;6187728;23;20009;-86
2024/02/15 13:15:11;;;;;;;3.42;1.80;;;;;;;17.20;36.82;94983.88;6187762;23;20047;-86
2024/02/15 13:17:38;;;;;;;2.17;1.80;;;;;;;17.47;35.97;94994.00;6188126;23;20012;-87
2024/02/15 13:20:11;;;;;;;2.22;1.77;;;;;;;17.47;36.19;94984.28;6187110;23;20005;-86
2024/02/15 13:22:38;;;;;;;2.90;1.88;;;;;;;17.45;36.41;94981.06;6189115;23;20052;-87
2024/02/15 13:27:30;;;;;;;3.67;1.77;;;;;;;17.45;36.17;94967.13;6214231;22;20099;-87
2024/02/15 13:29:58;;;;;;;2.63;1.80;;;;;;;17.42;36.24;94970.19;6163482;23;20040;-87
2024/02/15 13:32:24;;;;;;;2.67;1.90;;;;;;;17.72;35.78;94970.91;6163296;23;20062;-87
2024/02/15 13:34:56;;;;;;;2.33;1.90;;;;;;;17.87;35.79;94973.13;6187583;23;20027;-87
2024/02/15 13:37:23;;;;;;;4.95;2.10;;;;;;;17.82;35.52;94961.66;6164039;23;20004;-87
2024/02/15 13:39:49;;;;;;;2.10;1.90;;;;;;;17.66;35.50;94950.00;6187485;23;20015;-87
2024/02/15 13:42:16;;;;;;;2.72;2.00;;;;;;;17.68;35.20;94958.47;6187008;23;20015;-86
2024/02/15 13:44:48;;;;;;;5.95;2.17;;;;;;;17.24;35.83;94955.31;6212808;23;20060;-86
2024/02/15 13:47:16;;;;;;;3.63;1.83;;;;;;;17.49;35.65;94953.28;6164070;23;20013;-87
2024/02/15 13:52:06;;;;;;;4.18;2.22;;;;;;;17.24;36.03;94940.34;6215095;22;20036;-86
2024/02/15 13:54:33;;;;;;;2.58;2.00;;;;;;;17.20;37.48;94945.25;6187243;23;20004;-87
2024/02/15 13:57:01;;;;;;;3.22;2.10;;;;;;;17.47;36.58;94951.94;6187232;23;20012;-87
2024/02/15 13:59:34;;;;;;;3.85;2.00;;;;;;;17.52;35.74;94937.06;6187652;23;20015;-87
2024/02/15 14:04:26;;;;;;;4.00;2.10;;;;;;;17.61;35.51;94942.81;6188435;23;20036;-86
2024/02/15 14:06:53;;;;;;;6.60;2.20;;;;;;;17.59;35.38;94950.09;6138897;23;20013;-88
2024/02/15 14:09:19;;;;;;;3.63;1.92;;;;;;;17.56;35.68;94945.31;6162449;23;20012;-87
2024/02/15 14:11:44;;;;;;;3.35;2.47;;;;;;;17.65;35.89;94946.59;6162889;23;20009;-88
2024/02/15 14:14:10;;;;;;;4.15;2.13;;;;;;;17.70;35.47;94943.25;6162502;23;20027;-87
2024/02/15 14:16:35;;;;;;;3.13;2.10;;;;;;;17.68;35.44;94940.06;6162603;23;20084;-87
2024/02/15 14:19:03;;;;;;;3.85;2.20;;;;;;;17.51;35.11;94938.09;6187150;23;20016;-88
2024/02/15 14:21:31;;;;;;;3.15;2.00;;;;;;;17.62;34.50;94938.34;6169061;23;20080;-87
2024/02/15 14:23:57;;;;;;;3.20;2.20;;;;;;;17.32;35.75;94937.38;6142790;23;20004;-87
2024/02/15 14:26:26;;;;;;;3.65;2.30;;;;;;;17.26;35.13;94935.66;6162160;23;20083;-87
2024/02/15 14:28:52;;;;;;;3.65;2.08;;;;;;;17.40;36.03;94936.25;6212533;23;20138;-87
2024/02/15 14:34:02;;;;;;;3.30;2.17;;;;;;;17.55;36.00;94930.56;6191100;23;20016;-86
2024/02/15 14:36:30;;;;;;;3.28;2.28;;;;;;;17.65;36.93;94928.16;6186790;23;20008;-87
2024/02/15 14:38:56;;;;;;;6.15;2.28;;;;;;;17.58;35.96;94917.75;6162638;23;20072;-86
2024/02/15 14:44:07;;;;;;;2.92;2.30;;;;;;;17.45;37.39;94917.19;6219218;22;20013;-87
2024/02/15 14:46:35;;;;;;;3.33;2.88;;;;;;;17.46;38.72;94919.59;6162045;23;20012;-86
2024/02/15 14:49:02;;;;;;;3.33;2.30;;;;;;;17.21;38.15;94909.28;6162256;23;20027;-87
2024/02/15 14:51:28;;;;;;;2.88;2.40;;;;;;;17.43;38.85;94904.25;6162255;23;20012;-87
2024/02/15 14:53:53;;;;;;;4.75;2.60;;;;;;;17.35;38.17;94907.22;6186698;23;20013;-87
2024/02/15 14:58:44;;;;;;;4.63;2.78;;;;;;;17.17;38.62;94908.09;6180940;23;20021;-87
2024/02/15 15:01:14;;;;;;;3.90;2.78;;;;;;;17.30;38.89;94909.72;6132349;23;20009;-87
2024/02/15 15:03:39;;;;;;;5.10;2.70;;;;;;;17.17;38.92;94900.22;6132424;23;20016;-86
2024/02/15 15:14:19;;;;;;;5.05;2.75;;;;;;;17.02;37.68;94907.72;6160615;23;20019;-87
2024/02/15 15:16:45;;;;;;;2.92;2.50;;;;;;;17.00;38.90;94894.81;6132693;23;20033;-87
2024/02/15 15:19:12;;;;;;;4.18;2.70;;;;;;;16.89;39.43;94893.78;6156784;23;20009;-87
2024/02/15 15:24:05;;;;;;;4.20;2.80;;;;;;;16.90;39.23;94884.84;6213255;23;20025;-88
2024/02/15 15:26:34;;;;;;;4.03;2.58;;;;;;;16.98;40.74;94896.88;6161429;23;20012;-87
2024/02/15 15:29:05;;;;;;;4.15;2.60;;;;;;;16.99;40.24;94882.72;6186734;23;20004;-87
2024/02/15 15:31:31;;;;;;;4.32;2.47;;;;;;;16.81;40.61;94883.53;6162582;23;20015;-87
2024/02/15 15:36:33;;;;;;;6.50;2.97;;;;;;;17.06;41.20;94886.06;6211929;23;20086;-87
2024/02/15 15:38:58;;;;;;;4.07;3.10;;;;;;;16.96;41.18;94880.53;6162320;23;20017;-87
2024/02/15 15:41:23;;;;;;;3.20;2.85;;;;;;;16.77;41.30;94870.09;6186762;23;20008;-87
2024/02/15 15:46:24;;;;;;;3.45;2.97;;;;;;;16.80;42.13;94879.34;6211608;23;20020;-87
2024/02/15 15:48:52;;;;;;;5.05;3.30;;;;;;;16.79;41.70;94873.28;6186607;23;20016;-87
2024/02/15 15:56:08;;;;;;;7.47;4.60;;;;;;;16.89;42.05;94871.97;6210193;23;20025;-86
2024/02/15 15:58:34;;;;;;;6.32;4.55;;;;;;;16.99;42.32;94878.25;6212896;23;20071;-87
2024/02/15 16:01:00;;;;;;;9.43;4.53;;;;;;;16.76;43.10;94876.34;6163649;23;20078;-87
2024/02/15 16:03:25;;;;;;;7.28;4.20;;;;;;;16.69;43.51;94878.25;6163578;23;20095;-87
2024/02/15 16:05:52;;;;;;;7.60;4.25;;;;;;;16.58;43.43;94856.22;6187922;23;20008;-86
2024/02/15 16:08:20;;;;;;;7.10;3.88;;;;;;;16.66;43.63;94873.47;6163005;23;20020;-87
2024/02/15 16:10:45;;;;;;;7.20;3.60;;;;;;;16.71;42.46;94860.47;6163793;23;20008;-87
2024/02/15 16:18:23;;;;;;;7.43;4.25;;;;;;;16.38;43.94;94876.69;6210516;23;20028;-86
2024/02/15 16:20:49;;;;;;;7.57;4.00;;;;;;;16.32;43.05;94870.50;6139820;23;20013;-87
2024/02/15 16:23:14;;;;;;;7.63;3.95;;;;;;;16.42;42.98;94870.75;6188426;23;20063;-87
2024/02/15 16:28:06;;;;;;;8.30;4.30;;;;;;;16.08;44.40;94869.56;6172330;23;20023;-87
2024/02/15 16:30:33;;;;;;;9.10;4.05;;;;;;;16.12;44.20;94872.56;6187856;23;20016;-88
2024/02/15 16:33:03;;;;;;;7.50;4.35;;;;;;;16.12;43.76;94867.31;6213384;23;20012;-87
2024/02/15 16:35:30;;;;;;;7.35;4.55;;;;;;;15.98;43.85;94856.97;6164779;23;20013;-87
2024/02/15 16:37:55;;;;;;;8.93;4.50;;;;;;;15.96;43.38;94859.00;6212730;23;20012;-87
2024/02/15 16:40:22;;;;;;;7.00;4.45;;;;;;;15.77;43.11;94852.19;6188330;23;20064;-86
2024/02/15 16:42:53;;;;;;;199.05;117.88;;;;;;;15.90;41.98;94859.09;6187991;23;20070;-86
2024/02/15 16:45:19;;;;;;;37.75;25.60;;;;;;;15.86;42.87;94847.44;6187878;23;20009;-87
2024/02/15 16:47:55;;;;;;;17.08;9.70;;;;;;;15.97;42.13;94862.44;6230468;22;20052;-86
2024/02/15 16:50:24;;;;;;;11.35;8.35;;;;;;;15.79;42.39;94847.50;6195282;23;20012;-87
2024/02/15 16:52:49;;;;;;;10.85;7.72;;;;;;;15.78;43.31;94851.97;6218564;23;20008;-87
2024/02/15 16:55:16;;;;;;;6.10;4.63;;;;;;;15.91;42.46;94853.63;6218050;23;20004;-87
2024/02/15 16:57:42;;;;;;;7.80;4.40;;;;;;;15.67;42.48;94843.97;6217615;23;20008;-87
2024/02/15 17:00:08;;;;;;;6.65;5.28;;;;;;;15.74;42.53;94847.38;6192852;23;20043;-86
2024/02/15 17:02:40;;;;;;;7.68;5.60;;;;;;;15.62;42.51;94860.38;6157913;23;20017;-87
2024/02/15 17:05:07;;;;;;;6.38;4.82;;;;;;;15.60;43.16;94860.59;6158245;23;20023;-86
2024/02/15 17:07:38;;;;;;;5.82;4.43;;;;;;;15.62;43.47;94842.81;6157762;23;20009;-87
2024/02/15 17:10:04;;;;;;;10.95;7.38;;;;;;;15.61;42.93;94851.72;6158128;23;20020;-87
2024/02/15 17:12:30;;;;;;;10.52;5.13;;;;;;;15.59;42.39;94843.28;6158158;23;20005;-87
2024/02/15 17:14:56;;;;;;;7.93;5.15;;;;;;;15.74;42.08;94847.38;6158265;23;20027;-87
2024/02/15 17:17:22;;;;;;;8.48;5.25;;;;;;;15.18;44.00;94847.28;6182466;23;20019;-86
2024/02/15 17:19:47;;;;;;;5.93;4.18;;;;;;;15.13;44.24;94854.97;6108838;23;20055;-86
2024/02/15 17:22:14;;;;;;;6.10;4.50;;;;;;;15.27;44.33;94849.59;6133807;23;20048;-86
2024/02/15 17:24:44;;;;;;;4.40;3.90;;;;;;;15.44;45.25;94851.47;6133661;23;20009;-87
2024/02/15 17:27:09;;;;;;;6.63;4.70;;;;;;;15.48;46.08;94843.16;6133674;23;20001;-86
2024/02/15 17:29:35;;;;;;;9.73;3.97;;;;;;;15.49;44.46;94848.19;6133028;23;20047;-87
2024/02/15 17:32:01;;;;;;;6.47;4.07;;;;;;;15.38;44.96;94843.66;6133327;23;20143;-86
2024/02/15 17:34:27;;;;;;;6.15;4.30;;;;;;;15.36;44.42;94846.50;6109275;23;20013;-87
2024/02/15 17:36:52;;;;;;;6.15;3.70;;;;;;;15.50;43.81;94854.22;6133126;23;20013;-86
2024/02/15 17:39:18;;;;;;;5.32;3.65;;;;;;;15.57;43.55;94847.09;6108977;23;20019;-86
2024/02/15 17:41:43;;;;;;;10.48;3.78;;;;;;;15.31;44.54;94856.84;6157795;23;20012;-86
2024/02/15 17:44:13;;;;;;;7.68;3.40;;;;;;;15.27;44.66;94854.84;6157649;23;20008;-86
2024/02/15 17:46:39;;;;;;;7.97;5.30;;;;;;;15.27;45.30;94844.38;6157730;23;20008;-86
2024/02/15 17:49:05;;;;;;;7.63;5.25;;;;;;;15.37;45.97;94857.78;6157495;23;20001;-87